createdAt,value
2023-04-17T00:00:14.736Z,11.40
2023-04-17T00:02:45.166Z,9.40
2023-04-17T00:05:13.783Z,9.50
2023-04-17T00:07:42.206Z,10.50
2023-04-17T00:10:12.462Z,11.10
2023-04-17T00:12:40.427Z,10.00
2023-04-17T00:15:09.004Z,8.40
2023-04-17T00:17:37.497Z,10.70
2023-04-17T00:20:12.432Z,12.00
2023-04-17T00:22:41.076Z,10.70
2023-04-17T00:25:11.156Z,10.50
2023-04-17T00:27:39.689Z,12.30
2023-04-17T00:30:08.514Z,10.80
2023-04-17T00:32:37.907Z,11.80
2023-04-17T00:35:07.102Z,10.90
2023-04-17T00:37:36.303Z,11.20
2023-04-17T00:40:04.982Z,10.60
2023-04-17T00:42:33.135Z,12.70
2023-04-17T00:45:01.190Z,11.60
2023-04-17T00:47:29.464Z,11.40
2023-04-17T00:49:57.467Z,10.10
2023-04-17T00:52:29.941Z,9.50
2023-04-17T00:54:58.409Z,12.20
2023-04-17T00:57:26.480Z,10.80
2023-04-17T00:59:55.363Z,9.60
2023-04-17T01:02:23.335Z,10.70
2023-04-17T01:04:51.411Z,11.90
2023-04-17T01:07:19.432Z,11.60
2023-04-17T01:09:47.299Z,9.20
2023-04-17T01:12:24.956Z,13.70
2023-04-17T01:14:53.820Z,11.10
2023-04-17T01:17:22.095Z,10.80
2023-04-17T01:19:50.713Z,9.70
2023-04-17T01:22:20.681Z,10.10
2023-04-17T01:24:49.270Z,11.50
2023-04-17T01:27:17.714Z,13.00
2023-04-17T01:29:46.226Z,11.20
2023-04-17T01:32:14.437Z,10.40
2023-04-17T01:34:42.392Z,13.00
2023-04-17T01:37:10.438Z,10.40
2023-04-17T01:39:38.308Z,12.60
2023-04-17T01:42:06.725Z,11.40
2023-04-17T01:44:37.625Z,11.70
2023-04-17T01:47:05.834Z,10.50
2023-04-17T01:49:34.035Z,11.90
2023-04-17T01:52:02.075Z,10.70
2023-04-17T01:54:30.677Z,10.60
2023-04-17T01:56:58.922Z,11.00
2023-04-17T01:59:27.155Z,10.80
2023-04-17T02:01:55.470Z,10.40
2023-04-17T02:04:23.668Z,10.50
2023-04-17T02:06:51.611Z,11.20
2023-04-17T02:09:19.576Z,11.40
2023-04-17T02:11:47.569Z,12.10
2023-04-17T02:14:16.073Z,9.30
2023-04-17T02:16:45.852Z,9.10
2023-04-17T02:19:13.993Z,10.50
2023-04-17T02:21:42.262Z,9.20
2023-04-17T02:24:10.387Z,9.40
2023-04-17T02:26:38.932Z,10.10
2023-04-17T02:29:06.840Z,10.50
2023-04-17T02:31:34.735Z,11.30
2023-04-17T02:34:02.955Z,10.70
2023-04-17T02:36:31.342Z,12.20
2023-04-17T02:38:59.300Z,13.80
2023-04-17T02:41:27.247Z,10.90
2023-04-17T02:43:56.714Z,10.00
2023-04-17T02:46:24.746Z,13.30
2023-04-17T02:48:52.774Z,12.40
2023-04-17T02:51:21.933Z,10.50
2023-04-17T02:53:49.890Z,10.50
2023-04-17T02:56:18.254Z,14.50
2023-04-17T02:58:46.350Z,10.10
2023-04-17T03:01:14.487Z,11.50
2023-04-17T03:03:45.198Z,11.20
2023-04-17T03:06:14.445Z,11.00
2023-04-17T03:08:42.483Z,9.30
2023-04-17T03:11:10.515Z,10.50
2023-04-17T03:13:39.125Z,10.30
2023-04-17T03:16:07.394Z,8.10
2023-04-17T03:18:39.855Z,10.10
2023-04-17T03:21:07.996Z,11.00
2023-04-17T03:23:36.386Z,10.30
2023-04-17T03:26:04.642Z,10.90
2023-04-17T03:28:33.712Z,10.50
2023-04-17T03:31:02.277Z,12.60
2023-04-17T03:33:31.801Z,12.10
2023-04-17T03:35:59.678Z,10.30
2023-04-17T03:38:27.500Z,10.60
2023-04-17T03:40:55.605Z,8.80
2023-04-17T03:43:25.128Z,10.20
2023-04-17T03:45:53.050Z,9.30
2023-04-17T03:48:22.059Z,8.90
2023-04-17T03:50:51.442Z,9.80
2023-04-17T03:53:19.672Z,9.60
2023-04-17T03:55:47.811Z,11.10
2023-04-17T03:58:23.864Z,8.60
2023-04-17T04:00:56.357Z,12.90
2023-04-17T04:03:26.782Z,10.10
2023-04-17T04:05:54.990Z,9.40
2023-04-17T04:08:23.629Z,9.60
2023-04-17T04:10:53.103Z,11.60
2023-04-17T04:13:31.856Z,10.00
2023-04-17T04:16:00.210Z,9.80
2023-04-17T04:18:29.939Z,10.80
2023-04-17T04:20:58.474Z,9.10
2023-04-17T04:23:30.728Z,8.50
2023-04-17T04:26:01.767Z,9.80
2023-04-17T04:28:47.446Z,11.90
2023-04-17T04:31:20.014Z,12.20
2023-04-17T04:33:55.176Z,16.40
2023-04-17T04:36:24.002Z,15.60
2023-04-17T04:38:59.881Z,10.50
2023-04-17T04:41:33.969Z,11.70
2023-04-17T04:44:03.064Z,10.40
2023-04-17T04:46:31.243Z,11.50
2023-04-17T04:48:59.454Z,9.20
2023-04-17T04:51:27.818Z,9.10
2023-04-17T04:53:56.259Z,7.90
2023-04-17T04:56:24.260Z,10.30
2023-04-17T04:58:52.173Z,8.10
2023-04-17T05:01:21.110Z,8.40
2023-04-17T05:03:50.713Z,7.90
2023-04-17T05:06:23.393Z,8.30
2023-04-17T05:08:55.859Z,8.40
2023-04-17T05:11:24.213Z,8.80
2023-04-17T05:13:52.495Z,10.60
2023-04-17T05:16:25.567Z,7.30
2023-04-17T05:18:53.931Z,7.10
2023-04-17T05:21:32.513Z,7.50
2023-04-17T05:24:02.107Z,12.00
2023-04-17T05:26:30.495Z,7.90
2023-04-17T05:28:58.485Z,5.90
2023-04-17T05:31:29.473Z,10.70
2023-04-17T05:33:59.111Z,8.90
2023-04-17T05:36:27.917Z,7.70
2023-04-17T05:38:57.030Z,6.70
2023-04-17T05:41:26.309Z,5.90
2023-04-17T05:43:54.681Z,5.70
2023-04-17T05:46:22.923Z,7.50
2023-04-17T05:48:51.344Z,5.70
2023-04-17T05:51:21.702Z,4.50
2023-04-17T05:53:49.750Z,4.60
2023-04-17T05:56:18.269Z,9.30
2023-04-17T05:58:46.267Z,7.40
2023-04-17T06:01:17.181Z,4.70
2023-04-17T06:03:45.464Z,5.60
2023-04-17T06:06:17.774Z,5.10
2023-04-17T06:08:46.526Z,4.80
2023-04-17T06:11:15.825Z,6.20
2023-04-17T06:13:44.272Z,4.70
2023-04-17T06:16:12.302Z,5.30
